Time;durP1;ratioP1;P1;durP2;ratioP2;P2;SDS_P1;SDS_P2;PMS_P1;PMS_P2;Temp;Humidity;BMP_temperature;BMP_pressure;BME280_temperature;BME280_humidity;BME280_pressure;Samples;Min_cycle;Max_cycle;Signal;HPM_P1;HPM_P2
2022/03/31 00:00:38;;;;;;;7.55;5.82;;;;;;;5.53;68.73;100081.28;5097349;28;20035;-73
2022/03/31 00:03:09;;;;;;;9.00;6.07;;;;;;;5.57;68.95;100089.84;5129933;27;20035;-73
2022/03/31 00:05:35;;;;;;;9.38;6.15;;;;;;;5.52;69.44;100083.88;5127404;27;20028;-73
2022/03/31 00:08:03;;;;;;;9.05;6.40;;;;;;;5.55;69.89;100089.84;5110416;28;20031;-73
2022/03/31 00:10:33;;;;;;;7.82;5.95;;;;;;;5.55;69.81;100089.84;5098053;28;20020;-73
2022/03/31 00:12:59;;;;;;;7.55;5.70;;;;;;;5.57;69.97;100087.25;5128786;27;20038;-73
2022/03/31 00:15:28;;;;;;;7.85;5.88;;;;;;;5.55;69.29;100089.84;5127353;27;20023;-73
2022/03/31 00:17:55;;;;;;;8.65;6.03;;;;;;;5.55;69.09;100094.16;5122136;27;20035;-73
2022/03/31 00:23:42;;;;;;;7.13;5.82;;;;;;;5.54;69.74;100088.13;5129504;28;20083;-73
2022/03/31 00:26:08;;;;;;;6.95;5.65;;;;;;;5.58;69.18;100094.13;5132267;27;20027;-73
2022/03/31 00:28:33;;;;;;;8.75;6.13;;;;;;;5.59;69.40;100099.28;5114560;27;20043;-73
2022/03/31 00:30:59;;;;;;;7.40;5.95;;;;;;;5.60;69.44;100094.97;5124744;28;20053;-73
2022/03/31 00:33:24;;;;;;;10.07;6.35;;;;;;;5.61;70.20;100099.25;5129915;27;20106;-73
2022/03/31 00:35:50;;;;;;;7.63;6.25;;;;;;;5.58;70.56;100094.13;5130551;27;20076;-73
2022/03/31 00:38:15;;;;;;;10.85;6.78;;;;;;;5.60;69.73;100094.97;5112869;27;20542;-73
2022/03/31 00:40:41;;;;;;;7.45;5.95;;;;;;;5.60;69.77;100093.22;5112442;28;20027;-73
2022/03/31 00:43:08;;;;;;;8.68;6.53;;;;;;;5.58;69.92;100088.94;5124236;28;20462;-73
2022/03/31 00:45:46;;;;;;;8.18;6.47;;;;;;;5.56;70.33;100082.97;5120218;27;20087;-73
2022/03/31 00:48:13;;;;;;;9.75;7.03;;;;;;;5.56;69.67;100083.81;5112442;28;20044;-74
2022/03/31 00:50:38;;;;;;;11.07;6.47;;;;;;;5.54;70.13;100090.72;5120075;28;20036;-73
2022/03/31 00:53:03;;;;;;;10.20;7.07;;;;;;;5.50;69.99;100076.16;5114773;27;20049;-73
2022/03/31 00:55:29;;;;;;;9.23;6.82;;;;;;;5.47;70.49;100083.09;5124645;28;20104;-73
2022/03/31 00:57:55;;;;;;;9.82;7.28;;;;;;;5.51;70.84;100088.19;5130870;27;20367;-73
2022/03/31 01:00:21;;;;;;;9.77;7.28;;;;;;;5.49;70.26;100079.59;5130428;27;20027;-73
2022/03/31 01:02:47;;;;;;;9.65;7.20;;;;;;;5.53;70.55;100083.00;5118438;28;20020;-73
2022/03/31 01:05:14;;;;;;;10.95;7.40;;;;;;;5.56;70.49;100080.38;5113415;28;20035;-73
2022/03/31 01:07:40;;;;;;;12.10;8.27;;;;;;;5.53;70.57;100083.00;5118194;27;20030;-73
2022/03/31 01:10:07;;;;;;;11.70;7.65;;;;;;;5.51;70.25;100077.84;5110553;28;20027;-73
2022/03/31 01:12:33;;;;;;;12.95;7.80;;;;;;;5.51;70.76;100072.66;5115123;28;20016;-73
2022/03/31 01:15:19;;;;;;;12.02;7.97;;;;;;;5.50;70.20;100070.13;5122738;28;20027;-73
2022/03/31 01:17:47;;;;;;;12.07;8.48;;;;;;;5.49;70.60;100068.41;5122759;27;20486;-73
2022/03/31 01:20:20;;;;;;;14.05;9.07;;;;;;;5.45;70.91;100065.00;5128664;27;20027;-73
2022/03/31 01:22:46;;;;;;;11.48;8.40;;;;;;;5.39;71.22;100058.22;5124702;27;20050;-73
2022/03/31 01:25:12;;;;;;;14.90;9.10;;;;;;;5.37;71.54;100061.69;5116467;27;20055;-73
2022/03/31 01:27:40;;;;;;;18.25;9.23;;;;;;;5.36;71.49;100059.97;5129230;27;20085;-73
2022/03/31 01:30:09;;;;;;;15.73;9.07;;;;;;;5.34;71.77;100065.16;5115092;28;20020;-73
2022/03/31 01:32:36;;;;;;;15.63;10.00;;;;;;;5.33;71.72;100063.47;5106021;27;20055;-73
2022/03/31 01:35:04;;;;;;;16.10;10.48;;;;;;;5.34;72.73;100060.00;5127124;27;20110;-73
2022/03/31 01:37:29;;;;;;;18.67;10.07;;;;;;;5.34;72.75;100059.16;5134427;27;20120;-73
2022/03/31 01:39:55;;;;;;;14.00;9.43;;;;;;;5.31;72.26;100054.88;5122577;27;20077;-74
2022/03/31 01:42:22;;;;;;;14.18;10.02;;;;;;;5.25;73.81;100047.22;5119601;27;20031;-73
2022/03/31 01:44:48;;;;;;;15.07;10.07;;;;;;;5.20;74.09;100043.84;5121366;27;20034;-73
2022/03/31 01:47:13;;;;;;;15.90;9.88;;;;;;;5.29;74.46;100050.59;5127596;27;20030;-73
2022/03/31 01:49:39;;;;;;;13.60;9.18;;;;;;;5.30;73.81;100047.16;5114927;27;20040;-73
2022/03/31 01:52:06;;;;;;;14.13;9.05;;;;;;;5.26;74.27;100043.75;5116666;27;20024;-73
2022/03/31 01:54:32;;;;;;;13.48;9.25;;;;;;;5.19;73.49;100046.44;5133995;27;20027;-73
2022/03/31 01:56:57;;;;;;;12.73;8.23;;;;;;;5.17;74.63;100041.31;5134323;27;20071;-73
2022/03/31 01:59:22;;;;;;;15.75;9.68;;;;;;;5.11;73.91;100039.66;5133355;27;20029;-73
2022/03/31 02:01:48;;;;;;;17.40;10.38;;;;;;;5.11;74.59;100031.91;5122418;27;20032;-73
2022/03/31 02:04:15;;;;;;;16.92;10.15;;;;;;;5.07;74.83;100039.72;5130868;27;20027;-73
2022/03/31 02:06:41;;;;;;;16.60;10.45;;;;;;;5.00;74.87;100031.19;5131829;27;20042;-73
2022/03/31 02:09:06;;;;;;;13.57;10.35;;;;;;;4.95;74.86;100029.56;5124621;27;20371;-73
2022/03/31 02:11:33;;;;;;;15.70;10.07;;;;;;;4.86;76.16;100036.53;5122602;27;20063;-73
2022/03/31 02:13:58;;;;;;;15.57;10.63;;;;;;;4.80;76.77;100035.75;5115917;27;20103;-73
2022/03/31 02:16:24;;;;;;;15.32;9.90;;;;;;;4.76;76.66;100028.94;5134310;27;20118;-73
2022/03/31 02:18:49;;;;;;;20.15;11.10;;;;;;;4.72;76.95;100020.38;5125875;27;20126;-73
2022/03/31 02:21:15;;;;;;;17.00;11.13;;;;;;;4.67;77.33;100017.84;5133449;27;20503;-73
2022/03/31 02:23:41;;;;;;;16.85;10.75;;;;;;;4.64;77.18;100019.59;5115890;27;20047;-73
2022/03/31 02:26:06;;;;;;;17.50;12.05;;;;;;;4.53;77.93;100017.16;5115107;27;20066;-73
2022/03/31 02:28:32;;;;;;;18.33;10.85;;;;;;;4.45;77.90;100014.69;5121807;27;20072;-73
2022/03/31 02:30:57;;;;;;;17.27;11.73;;;;;;;4.53;78.44;100024.06;5131722;27;20027;-73
2022/03/31 02:33:22;;;;;;;18.88;12.18;;;;;;;4.53;78.39;100018.88;5119548;27;20421;-73
2022/03/31 02:35:47;;;;;;;19.60;11.75;;;;;;;4.56;78.56;100019.72;5121052;27;20133;-73
2022/03/31 02:38:13;;;;;;;21.20;12.02;;;;;;;4.59;78.34;100027.41;5128411;27;20485;-73
2022/03/31 02:40:38;;;;;;;18.02;12.02;;;;;;;4.58;78.82;100004.22;5123147;27;20034;-73
2022/03/31 02:43:04;;;;;;;18.42;10.88;;;;;;;4.61;78.41;100019.63;5116921;27;20360;-73
2022/03/31 02:45:29;;;;;;;20.52;11.02;;;;;;;4.58;79.00;100006.81;5114193;27;20023;-73
2022/03/31 02:47:54;;;;;;;16.30;10.32;;;;;;;4.60;78.86;100012.78;5114217;27;20040;-73
2022/03/31 02:50:20;;;;;;;17.10;10.68;;;;;;;4.59;79.11;100000.75;5091812;28;20035;-73
2022/03/31 02:55:30;;;;;;;15.95;10.20;;;;;;;4.53;79.36;100006.00;5132330;27;20038;-73
2022/03/31 02:58:03;;;;;;;17.08;11.10;;;;;;;4.50;79.46;100008.59;5130699;27;20023;-73
2022/03/31 03:00:30;;;;;;;13.43;9.50;;;;;;;4.54;79.75;99995.63;5114769;27;20059;-73
2022/03/31 03:02:56;;;;;;;14.52;9.45;;;;;;;4.56;80.81;100001.63;5132333;27;20664;-73
2022/03/31 03:05:22;;;;;;;12.52;8.55;;;;;;;4.56;81.41;100000.78;5133218;27;20023;-73
2022/03/31 03:07:47;;;;;;;14.73;9.13;;;;;;;4.52;81.54;100001.72;5118919;27;20035;-73
2022/03/31 03:10:13;;;;;;;14.25;9.27;;;;;;;4.48;82.03;99995.72;5122559;27;20118;-73
2022/03/31 03:12:41;;;;;;;13.38;9.45;;;;;;;4.43;82.00;99994.91;5127967;27;20024;-73
2022/03/31 03:15:07;;;;;;;15.20;9.52;;;;;;;4.42;82.72;99990.63;5133133;27;20031;-73
2022/03/31 03:17:33;;;;;;;18.17;10.38;;;;;;;4.36;82.86;99985.53;5130146;27;20050;-73
2022/03/31 03:19:58;;;;;;;16.55;10.38;;;;;;;4.36;82.67;99988.97;5115606;27;20107;-73
2022/03/31 03:22:23;;;;;;;13.98;9.73;;;;;;;4.27;83.87;99976.16;5123717;27;20106;-73
2022/03/31 03:24:48;;;;;;;13.23;8.65;;;;;;;4.31;83.39;99992.47;5111778;28;20028;-73
2022/03/31 03:27:14;;;;;;;11.90;8.80;;;;;;;4.28;83.48;99989.94;5116733;27;20466;-73
2022/03/31 03:29:46;;;;;;;10.32;7.90;;;;;;;4.31;83.00;99993.31;5125394;27;20035;-73
2022/03/31 03:32:12;;;;;;;10.45;7.55;;;;;;;4.31;83.23;99992.47;5119739;27;20023;-73
2022/03/31 03:34:37;;;;;;;10.80;7.55;;;;;;;4.28;82.71;99985.63;5112267;28;20043;-73
2022/03/31 03:37:03;;;;;;;9.05;6.80;;;;;;;4.20;83.18;99977.13;5120577;27;20023;-73
2022/03/31 03:39:28;;;;;;;12.82;7.38;;;;;;;4.11;83.28;99988.38;5123569;27;20479;-73
2022/03/31 03:41:53;;;;;;;9.20;6.75;;;;;;;4.06;82.78;99986.75;5132084;27;20043;-73
2022/03/31 03:44:18;;;;;;;7.22;6.07;;;;;;;3.97;83.18;99991.13;5130631;27;20398;-73
2022/03/31 03:46:44;;;;;;;6.90;5.82;;;;;;;3.88;83.54;99988.63;5116954;27;20039;-73
2022/03/31 03:49:09;;;;;;;6.40;5.28;;;;;;;3.84;83.71;99992.09;5121250;27;20479;-73
2022/03/31 03:51:34;;;;;;;6.78;4.60;;;;;;;3.73;83.27;99991.38;5131731;27;20038;-73
2022/03/31 03:54:00;;;;;;;5.05;4.25;;;;;;;3.59;83.31;99999.19;5131906;27;20122;-73
2022/03/31 03:56:25;;;;;;;4.88;4.38;;;;;;;3.53;83.69;99991.50;5130796;27;20379;-73
2022/03/31 03:58:50;;;;;;;4.43;3.92;;;;;;;3.53;83.40;99996.66;5120873;27;20080;-73
2022/03/31 04:01:15;;;;;;;4.32;3.92;;;;;;;3.43;84.20;99998.50;5099804;27;20030;-73
2022/03/31 04:03:41;;;;;;;4.90;4.20;;;;;;;3.34;83.81;99995.13;5091324;28;20036;-73
2022/03/31 04:06:06;;;;;;;6.60;4.05;;;;;;;3.33;84.36;100006.28;5095260;28;20107;-73
2022/03/31 04:08:31;;;;;;;5.53;3.75;;;;;;;3.24;84.45;100002.06;5121832;28;20052;-73
2022/03/31 04:10:56;;;;;;;4.53;3.90;;;;;;;3.18;84.89;100004.69;5129513;27;20019;-73
2022/03/31 04:13:22;;;;;;;4.22;3.83;;;;;;;3.09;85.68;99999.59;5109278;28;20066;-73
2022/03/31 04:15:47;;;;;;;6.60;4.53;;;;;;;3.07;84.93;100012.44;5111104;28;20031;-73
2022/03/31 04:18:12;;;;;;;5.82;4.32;;;;;;;2.97;86.26;100003.94;5109665;28;20059;-73
2022/03/31 04:20:38;;;;;;;6.50;4.40;;;;;;;2.88;86.59;100001.44;5090249;28;20035;-73
2022/03/31 04:23:03;;;;;;;7.00;4.18;;;;;;;2.78;87.32;100003.19;5106960;28;20023;-73
2022/03/31 04:25:29;;;;;;;4.40;4.00;;;;;;;2.65;88.09;100004.13;5111551;28;20039;-73
2022/03/31 04:27:54;;;;;;;6.18;4.80;;;;;;;2.54;89.87;99999.00;5124775;28;20442;-73
2022/03/31 04:30:21;;;;;;;5.10;4.55;;;;;;;2.46;90.83;99995.63;5131424;28;20106;-73
2022/03/31 04:32:47;;;;;;;5.13;4.10;;;;;;;2.37;90.32;100000.78;5121314;27;20076;-73
2022/03/31 04:35:13;;;;;;;5.05;4.35;;;;;;;2.30;91.26;100012.81;5127382;27;20070;-73
2022/03/31 04:37:38;;;;;;;4.97;4.03;;;;;;;2.23;91.39;100013.72;5117483;27;20111;-73
2022/03/31 04:40:05;;;;;;;4.35;3.60;;;;;;;2.18;92.13;100017.13;5112088;28;20023;-73
2022/03/31 04:42:30;;;;;;;3.75;3.35;;;;;;;2.16;92.09;100006.00;5125370;28;20591;-73
2022/03/31 04:44:56;;;;;;;5.75;4.10;;;;;;;2.15;92.58;100010.28;5128503;28;20066;-73
2022/03/31 04:47:21;;;;;;;4.70;3.40;;;;;;;2.09;92.57;100015.44;5129487;27;20394;-73
2022/03/31 04:49:46;;;;;;;4.20;3.80;;;;;;;1.99;93.58;100008.59;5130912;27;20039;-73
2022/03/31 04:52:11;;;;;;;3.67;3.30;;;;;;;1.97;93.68;100012.91;5111753;27;20455;-73
2022/03/31 04:54:43;;;;;;;4.22;3.22;;;;;;;2.01;94.18;100017.19;5113524;28;20039;-73
2022/03/31 04:57:18;;;;;;;4.20;3.20;;;;;;;2.02;94.11;100019.72;5134518;27;20027;-73
2022/03/31 04:59:44;;;;;;;4.25;3.40;;;;;;;1.95;93.49;100022.31;5123500;27;20421;-73
2022/03/31 05:02:11;;;;;;;3.95;3.55;;;;;;;1.95;94.17;100018.03;5121916;27;20023;-73
2022/03/31 05:04:36;;;;;;;4.35;3.50;;;;;;;1.90;94.58;100018.91;5126019;27;20028;-73
2022/03/31 05:07:02;;;;;;;4.90;3.38;;;;;;;1.84;94.58;100010.34;5122010;27;20106;-73
2022/03/31 05:09:27;;;;;;;4.10;3.60;;;;;;;1.93;94.99;100019.78;5134129;27;20031;-73
2022/03/31 05:11:53;;;;;;;4.10;3.65;;;;;;;1.95;93.87;100023.19;5133489;27;20470;-73
2022/03/31 05:14:18;;;;;;;4.28;3.60;;;;;;;1.90;94.72;100012.06;5133528;27;20061;-73
2022/03/31 05:16:43;;;;;;;3.97;3.50;;;;;;;1.85;95.00;100021.47;5132868;27;20023;-73
2022/03/31 05:19:08;;;;;;;4.10;3.40;;;;;;;1.75;94.25;100017.22;5135578;27;20027;-73
2022/03/31 05:21:34;;;;;;;4.30;3.58;;;;;;;1.62;94.87;100014.63;5133450;27;20031;-73
2022/03/31 05:23:59;;;;;;;5.32;3.22;;;;;;;1.65;95.17;100016.34;5119890;27;20031;-73
2022/03/31 05:26:24;;;;;;;4.97;3.65;;;;;;;1.54;94.69;100013.81;5128621;27;20023;-73
2022/03/31 05:28:50;;;;;;;4.03;3.63;;;;;;;1.54;95.73;100020.66;5116384;27;20031;-74
2022/03/31 05:31:15;;;;;;;5.05;3.58;;;;;;;1.46;96.35;100023.19;5119505;27;20025;-74
2022/03/31 05:33:40;;;;;;;4.00;3.40;;;;;;;1.44;95.74;100022.38;5134836;27;20035;-74
2022/03/31 05:36:06;;;;;;;3.92;3.47;;;;;;;1.30;96.74;100021.47;5132912;27;20091;-75
2022/03/31 05:38:31;;;;;;;3.40;2.92;;;;;;;1.25;96.32;100026.63;5122087;27;20035;-75
2022/03/31 05:40:57;;;;;;;3.95;3.50;;;;;;;1.17;97.09;100028.31;5114495;27;20040;-75
2022/03/31 05:43:22;;;;;;;3.70;3.20;;;;;;;1.11;97.33;100025.72;5128242;27;20051;-75
2022/03/31 05:45:48;;;;;;;4.45;3.10;;;;;;;1.11;96.88;100021.47;5126851;27;20054;-75
2022/03/31 05:48:13;;;;;;;4.47;3.50;;;;;;;1.06;97.86;100033.44;5115283;27;20089;-75
2022/03/31 05:50:39;;;;;;;4.20;3.25;;;;;;;0.96;97.92;100034.25;5114297;27;20032;-75
2022/03/31 05:53:04;;;;;;;4.05;2.95;;;;;;;0.92;97.90;100029.97;5114900;27;20039;-75
2022/03/31 05:55:30;;;;;;;4.07;3.05;;;;;;;0.84;98.39;100036.78;5114846;27;20438;-75
2022/03/31 05:57:56;;;;;;;4.30;3.22;;;;;;;0.85;98.49;100029.09;5125569;27;20030;-75
2022/03/31 06:00:21;;;;;;;3.65;2.90;;;;;;;0.83;98.21;100023.09;5114460;27;20024;-74
2022/03/31 06:02:49;;;;;;;4.53;3.25;;;;;;;0.80;98.72;100024.81;5119797;27;20027;-75
2022/03/31 06:05:15;;;;;;;3.85;3.25;;;;;;;0.71;99.09;100025.63;5132291;27;20423;-75
2022/03/31 06:07:41;;;;;;;5.35;3.60;;;;;;;0.68;98.87;100017.91;5133861;27;20054;-75
2022/03/31 06:10:07;;;;;;;4.38;3.47;;;;;;;0.76;99.84;100023.09;5127661;27;20432;-75
2022/03/31 06:12:32;;;;;;;3.80;2.92;;;;;;;0.85;100.00;100023.09;5113985;27;20050;-75
2022/03/31 06:14:57;;;;;;;4.15;3.30;;;;;;;0.93;98.78;100026.56;5115069;27;20494;-75
2022/03/31 06:17:23;;;;;;;3.95;3.05;;;;;;;0.96;98.66;100023.16;5113497;28;20490;-76
2022/03/31 06:19:49;;;;;;;4.22;3.40;;;;;;;0.90;99.28;100026.53;5113045;28;20040;-76
2022/03/31 06:22:14;;;;;;;4.90;3.35;;;;;;;0.93;100.00;100029.13;5115858;27;20525;-76
2022/03/31 06:24:39;;;;;;;9.55;3.53;;;;;;;0.94;99.81;100023.13;5127109;27;20057;-76
2022/03/31 06:27:07;;;;;;;4.30;3.40;;;;;;;0.92;99.28;100020.56;5112930;28;20051;-76
2022/03/31 06:29:33;;;;;;;3.75;3.08;;;;;;;0.98;99.57;100030.00;5113256;28;20423;-76
2022/03/31 06:31:59;;;;;;;4.85;3.13;;;;;;;0.95;100.00;100030.00;5124445;27;20054;-77
2022/03/31 06:34:24;;;;;;;3.83;3.03;;;;;;;0.96;99.85;100025.72;5121845;27;20490;-77
2022/03/31 06:36:49;;;;;;;4.85;3.20;;;;;;;0.97;100.00;100027.41;5133477;27;20019;-77
2022/03/31 06:39:15;;;;;;;4.22;3.17;;;;;;;0.96;99.76;100033.41;5117446;27;20471;-77
2022/03/31 06:41:42;;;;;;;4.43;3.42;;;;;;;0.99;100.00;100035.97;5113221;27;20057;-76
2022/03/31 06:44:08;;;;;;;4.60;3.72;;;;;;;1.00;100.00;100030.00;5131781;27;20035;-77
2022/03/31 06:46:34;;;;;;;5.75;3.50;;;;;;;0.99;100.00;100041.97;5116854;27;20395;-76
2022/03/31 06:49:00;;;;;;;5.97;3.88;;;;;;;1.04;100.00;100037.69;5115775;27;20032;-76
2022/03/31 06:51:26;;;;;;;5.55;4.28;;;;;;;1.08;100.00;100036.88;5112952;28;20524;-76
2022/03/31 06:53:51;;;;;;;5.88;4.00;;;;;;;1.14;100.00;100029.19;5117626;27;20023;-76
2022/03/31 06:56:18;;;;;;;6.25;4.35;;;;;;;1.22;100.00;100039.44;5116797;27;20383;-76
2022/03/31 06:58:44;;;;;;;5.78;4.57;;;;;;;1.31;100.00;100036.91;5112886;28;20028;-76
2022/03/31 07:01:11;;;;;;;5.78;4.57;;;;;;;1.32;100.00;100030.91;5120921;27;20023;-76
2022/03/31 07:03:36;;;;;;;5.50;4.25;;;;;;;1.33;100.00;100032.59;5123684;27;20027;-76
2022/03/31 07:06:02;;;;;;;5.65;4.60;;;;;;;1.37;100.00;100036.03;5113064;28;20498;-75
2022/03/31 07:08:27;;;;;;;5.38;4.25;;;;;;;1.43;100.00;100038.59;5111990;28;20027;-76
2022/03/31 07:10:53;;;;;;;5.88;4.63;;;;;;;1.51;100.00;100018.09;5112581;28;20422;-76
2022/03/31 07:13:18;;;;;;;6.07;4.63;;;;;;;1.52;100.00;100022.34;5113927;27;20485;-75
2022/03/31 07:15:44;;;;;;;5.55;4.32;;;;;;;1.52;100.00;100033.47;5111541;28;20036;-76
2022/03/31 07:18:09;;;;;;;4.97;4.22;;;;;;;1.49;100.00;100042.91;5111692;28;20024;-76
2022/03/31 07:20:35;;;;;;;5.25;4.70;;;;;;;1.37;100.00;100031.78;5112761;28;20030;-76
2022/03/31 07:23:01;;;;;;;6.00;4.93;;;;;;;1.33;100.00;100029.19;5113928;27;20023;-76
2022/03/31 07:25:27;;;;;;;5.30;4.78;;;;;;;1.32;100.00;100024.91;5115566;27;20035;-76
2022/03/31 07:27:53;;;;;;;5.95;4.75;;;;;;;1.40;100.00;100020.63;5113470;27;20422;-76
2022/03/31 07:30:20;;;;;;;5.88;4.85;;;;;;;1.47;100.00;100027.50;5111777;28;20020;-76
2022/03/31 07:32:56;;;;;;;6.13;4.82;;;;;;;1.51;100.00;100024.06;5117175;27;20027;-75
2022/03/31 07:35:24;;;;;;;5.57;4.85;;;;;;;1.52;100.00;100025.78;5132687;27;20030;-76
2022/03/31 07:37:51;;;;;;;7.38;5.20;;;;;;;1.51;100.00;100025.78;5129842;27;20399;-76
2022/03/31 07:40:17;;;;;;;5.93;5.18;;;;;;;1.52;100.00;100032.63;5112535;27;20023;-76
2022/03/31 07:42:42;;;;;;;6.32;5.05;;;;;;;1.56;100.00;100042.03;5123708;27;20043;-75
2022/03/31 07:45:09;;;;;;;7.93;5.45;;;;;;;1.57;100.00;100036.03;5112885;27;20076;-75
2022/03/31 07:47:34;;;;;;;7.50;5.35;;;;;;;1.59;100.00;100032.63;5113807;27;20038;-76
2022/03/31 07:49:59;;;;;;;6.20;5.22;;;;;;;1.64;100.00;100027.50;5129853;27;20023;-75
2022/03/31 07:52:25;;;;;;;7.05;5.57;;;;;;;1.68;100.00;100033.50;5131710;27;20034;-75
2022/03/31 07:54:50;;;;;;;5.95;4.97;;;;;;;1.66;100.00;100028.34;5131213;27;20034;-75
2022/03/31 07:57:16;;;;;;;6.68;5.00;;;;;;;1.63;100.00;100025.78;5114011;27;20028;-75
2022/03/31 07:59:41;;;;;;;6.72;5.47;;;;;;;1.69;100.00;100027.50;5111390;28;20007;-75
2022/03/31 08:02:07;;;;;;;6.60;5.47;;;;;;;1.70;100.00;100026.63;5112334;28;20479;-75
2022/03/31 08:04:32;;;;;;;6.32;5.15;;;;;;;1.68;100.00;100028.34;5111955;28;20085;-75
2022/03/31 08:06:57;;;;;;;6.18;5.15;;;;;;;1.71;100.00;100025.78;5112354;28;20031;-75
2022/03/31 08:09:23;;;;;;;5.90;4.97;;;;;;;1.71;100.00;100020.66;5111444;28;20036;-75
2022/03/31 08:11:49;;;;;;;6.28;4.85;;;;;;;1.75;100.00;100019.78;5115878;28;20506;-75
2022/03/31 08:14:21;;;;;;;5.32;4.80;;;;;;;1.71;100.00;100018.94;5132018;27;20034;-75
2022/03/31 08:16:48;;;;;;;5.40;4.65;;;;;;;1.70;100.00;100022.38;5125264;27;20027;-75
2022/03/31 08:19:15;;;;;;;5.32;4.45;;;;;;;1.75;100.00;100019.78;5131520;27;20494;-75
2022/03/31 08:21:42;;;;;;;5.03;4.43;;;;;;;1.87;100.00;100012.06;5132103;27;20055;-75
2022/03/31 08:24:08;;;;;;;6.47;5.28;;;;;;;1.99;100.00;100011.19;5114704;27;20371;-75
2022/03/31 08:26:34;;;;;;;6.47;5.05;;;;;;;2.09;100.00;100015.44;5110958;28;20054;-75
2022/03/31 08:28:59;;;;;;;6.00;4.63;;;;;;;2.16;100.00;100022.31;5113165;28;20455;-75
2022/03/31 08:31:25;;;;;;;5.00;4.32;;;;;;;2.12;100.00;100012.84;5136010;27;20031;-76
2022/03/31 08:33:50;;;;;;;5.22;4.63;;;;;;;2.17;100.00;100023.16;5122021;27;20099;-75
2022/03/31 08:36:15;;;;;;;4.93;4.32;;;;;;;2.17;100.00;100020.59;5115636;28;20032;-75
2022/03/31 08:38:41;;;;;;;5.40;4.60;;;;;;;2.17;100.00;100024.00;5115676;28;20439;-75
2022/03/31 08:41:06;;;;;;;5.05;4.32;;;;;;;2.16;100.00;100026.56;5114097;28;20019;-75
2022/03/31 08:43:32;;;;;;;5.82;4.50;;;;;;;2.11;100.00;100017.16;5115564;28;20020;-75
2022/03/31 08:45:57;;;;;;;5.60;4.95;;;;;;;2.15;100.00;100024.84;5115690;28;20051;-75
2022/03/31 08:48:26;;;;;;;5.70;4.85;;;;;;;2.19;100.00;100023.97;5115792;27;20047;-75
2022/03/31 08:50:51;;;;;;;7.40;5.03;;;;;;;2.25;100.00;100026.53;5126522;27;20039;-76
2022/03/31 08:53:16;;;;;;;6.60;5.22;;;;;;;2.27;100.00;100032.56;5115688;28;20027;-75
2022/03/31 08:55:42;;;;;;;7.80;5.50;;;;;;;2.24;100.00;100033.41;5114487;28;20497;-75
2022/03/31 08:58:08;;;;;;;6.80;5.57;;;;;;;2.26;100.00;100028.28;5115781;28;20027;-75
2022/03/31 09:00:34;;;;;;;7.50;6.05;;;;;;;2.33;100.00;100029.97;5115268;28;20523;-75
2022/03/31 09:03:02;;;;;;;8.80;6.30;;;;;;;2.39;100.00;100029.94;5114467;28;20107;-76
2022/03/31 09:05:35;;;;;;;7.82;6.40;;;;;;;2.50;100.00;100040.19;5115100;28;20032;-75
2022/03/31 09:08:02;;;;;;;6.80;5.57;;;;;;;2.57;100.00;100032.44;5114649;28;20027;-75
2022/03/31 09:10:38;;;;;;;6.93;5.70;;;;;;;2.66;100.00;100038.44;5115268;28;20024;-75
2022/03/31 09:13:23;;;;;;;6.55;5.18;;;;;;;2.70;100.00;100032.41;5120386;27;20027;-75
2022/03/31 09:15:50;;;;;;;6.35;5.15;;;;;;;2.82;100.00;100040.06;5116189;27;20023;-76
2022/03/31 09:18:17;;;;;;;6.75;5.60;;;;;;;2.88;100.00;100032.31;5125635;27;20027;-75
2022/03/31 09:20:44;;;;;;;6.20;5.47;;;;;;;2.90;100.00;100032.31;5123450;27;20034;-76
2022/03/31 09:23:15;;;;;;;7.30;6.00;;;;;;;2.95;100.00;100030.56;5115671;27;20035;-76
2022/03/31 09:25:41;;;;;;;6.45;5.25;;;;;;;2.97;100.00;100042.56;5126210;27;20099;-75
2022/03/31 09:28:32;;;;;;;6.03;5.25;;;;;;;2.99;100.00;100033.09;5116155;27;20112;-75
2022/03/31 09:30:58;;;;;;;6.07;5.10;;;;;;;2.84;99.95;100040.06;5110671;28;20039;-76
2022/03/31 09:33:29;;;;;;;6.22;5.40;;;;;;;2.81;100.00;100043.50;5114708;28;20107;-75
2022/03/31 09:36:00;;;;;;;6.53;5.47;;;;;;;2.78;100.00;100046.09;5126814;27;20387;-75
2022/03/31 09:38:25;;;;;;;7.93;4.70;;;;;;;2.72;100.00;100038.41;5113682;28;20471;-75
2022/03/31 09:40:51;;;;;;;8.18;4.97;;;;;;;2.77;100.00;100047.78;5113202;28;20064;-74
2022/03/31 09:43:17;;;;;;;6.38;5.35;;;;;;;2.73;100.00;100029.81;5115855;27;20378;-75
2022/03/31 09:45:43;;;;;;;7.47;5.10;;;;;;;2.73;100.00;100045.25;5134855;27;20433;-75
2022/03/31 09:48:24;;;;;;;5.28;4.55;;;;;;;2.85;99.89;100034.06;5135183;27;20122;-75
2022/03/31 09:50:50;;;;;;;6.25;4.88;;;;;;;2.93;99.27;100034.88;5134218;27;20106;-75
2022/03/31 09:53:16;;;;;;;8.48;5.20;;;;;;;2.96;99.28;100046.00;5128779;27;20078;-75
2022/03/31 09:55:43;;;;;;;5.93;5.05;;;;;;;3.00;99.90;100045.13;5119044;27;20491;-75
2022/03/31 09:58:18;;;;;;;5.88;4.95;;;;;;;3.01;98.11;100036.53;5110655;27;20399;-75
2022/03/31 10:00:44;;;;;;;7.13;5.68;;;;;;;3.00;98.67;100033.97;5107967;28;20027;-75
2022/03/31 10:03:13;;;;;;;6.70;5.20;;;;;;;3.03;98.73;100033.94;5107193;27;20387;-75
2022/03/31 10:05:39;;;;;;;6.57;5.07;;;;;;;3.14;98.59;100032.19;5104128;27;20035;-75
2022/03/31 10:08:07;;;;;;;8.70;5.00;;;;;;;3.14;97.71;100029.59;5114159;28;20088;-75
2022/03/31 10:10:33;;;;;;;6.22;4.72;;;;;;;3.17;97.86;100021.88;5107496;27;20039;-75
2022/03/31 10:13:10;;;;;;;7.05;4.68;;;;;;;3.17;96.96;100023.56;5109160;28;20511;-75
2022/03/31 10:15:37;;;;;;;5.82;4.68;;;;;;;3.18;97.05;100030.44;5104019;27;20036;-75
2022/03/31 10:18:04;;;;;;;7.70;5.07;;;;;;;3.17;96.93;100029.59;5107980;28;20036;-74
2022/03/31 10:20:29;;;;;;;8.23;5.70;;;;;;;3.29;97.94;100026.06;5102556;27;20028;-75
2022/03/31 10:25:45;;;;;;;8.45;4.93;;;;;;;3.52;97.17;100025.88;5114600;27;20081;-75
2022/03/31 10:28:12;;;;;;;5.85;4.53;;;;;;;3.59;96.07;100026.69;5098288;28;20019;-75
2022/03/31 10:30:37;;;;;;;6.05;4.60;;;;;;;3.59;95.87;100034.44;5110812;28;20024;-74
2022/03/31 10:33:05;;;;;;;7.05;4.63;;;;;;;3.62;96.63;100031.81;5092683;28;20517;-75
2022/03/31 10:35:34;;;;;;;5.63;4.60;;;;;;;3.63;94.99;100020.63;5096162;28;20028;-75
2022/03/31 10:38:18;;;;;;;5.55;4.28;;;;;;;3.67;94.66;100022.34;5109927;28;20023;-75
2022/03/31 10:40:49;;;;;;;5.07;4.28;;;;;;;3.70;94.55;100022.31;5105018;27;20106;-75
2022/03/31 10:43:20;;;;;;;5.78;4.68;;;;;;;3.90;95.39;100017.84;5113202;28;20027;-75
2022/03/31 10:45:45;;;;;;;5.43;4.38;;;;;;;4.03;94.70;100023.75;5107746;28;20035;-74
2022/03/31 10:48:22;;;;;;;4.90;4.38;;;;;;;4.07;92.57;100025.41;5104561;28;20090;-74
2022/03/31 10:51:00;;;;;;;5.10;4.60;;;;;;;4.18;93.69;100020.13;5102122;27;20036;-74
2022/03/31 10:53:30;;;;;;;5.45;4.57;;;;;;;4.36;92.85;100013.94;5092321;28;20040;-73
2022/03/31 10:55:57;;;;;;;6.38;4.90;;;;;;;4.32;92.09;100015.69;5114742;27;20106;-72
2022/03/31 10:58:30;;;;;;;6.75;4.35;;;;;;;4.24;90.42;100012.31;5106619;27;20054;-73
2022/03/31 11:00:57;;;;;;;;;;;;;;;4.29;92.16;100015.72;5101977;27;20831;-72
2022/03/31 11:03:23;;;;;;;5.32;4.20;;;;;;;4.22;91.21;100020.09;5107891;28;19920;-72
2022/03/31 11:05:49;;;;;;;5.55;4.25;;;;;;;4.10;91.90;100015.06;5109574;28;20038;-72
2022/03/31 11:08:17;;;;;;;5.00;4.50;;;;;;;3.95;92.91;100013.47;5091404;28;20024;-72
2022/03/31 11:10:49;;;;;;;6.53;4.38;;;;;;;3.93;91.61;100011.81;5103778;28;20027;-73
2022/03/31 11:13:16;;;;;;;5.47;4.45;;;;;;;3.95;93.27;100018.63;5111804;28;20111;-72
2022/03/31 11:15:54;;;;;;;4.75;4.00;;;;;;;3.83;91.47;100016.19;5094657;27;20110;-72
2022/03/31 11:18:21;;;;;;;5.38;4.55;;;;;;;3.65;92.22;100016.34;5095437;27;20473;-73
2022/03/31 11:20:58;;;;;;;5.57;4.88;;;;;;;3.61;93.29;100002.63;5095847;28;20026;-73
2022/03/31 11:23:25;;;;;;;5.05;4.43;;;;;;;3.84;94.04;100005.00;5098971;28;20023;-73
2022/03/31 11:25:50;;;;;;;7.40;5.20;;;;;;;4.13;94.54;100002.13;5107460;28;20049;-73
2022/03/31 11:28:16;;;;;;;5.88;5.25;;;;;;;4.23;93.96;100002.88;5109220;28;20468;-73
2022/03/31 11:30:43;;;;;;;5.80;5.13;;;;;;;4.32;94.05;99991.63;5110147;27;20035;-72
2022/03/31 11:33:13;;;;;;;6.15;4.78;;;;;;;4.42;94.14;99986.31;5108942;27;20024;-74
2022/03/31 11:35:39;;;;;;;5.72;4.75;;;;;;;4.50;93.81;99985.38;5129148;27;20633;-73